createdAt,value
2022-07-29T00:01:03.019Z,0.93
2022-07-29T00:03:29.509Z,1.20
2022-07-29T00:05:56.232Z,1.10
2022-07-29T00:08:22.684Z,1.30
2022-07-29T00:10:50.264Z,1.30
2022-07-29T00:13:16.726Z,1.48
2022-07-29T00:15:43.192Z,1.73
2022-07-29T00:18:09.664Z,1.27
2022-07-29T00:20:36.172Z,1.40
2022-07-29T00:23:02.640Z,1.48
2022-07-29T00:25:29.131Z,1.30
2022-07-29T00:27:55.613Z,1.30
2022-07-29T00:30:22.112Z,1.52
2022-07-29T00:32:48.592Z,1.52
2022-07-29T00:35:33.763Z,1.40
2022-07-29T00:38:00.239Z,1.10
2022-07-29T00:40:28.561Z,1.35
2022-07-29T00:42:55.059Z,1.17
2022-07-29T00:45:22.858Z,1.27
2022-07-29T00:47:50.429Z,1.58
2022-07-29T00:50:16.901Z,1.05
2022-07-29T00:52:43.483Z,1.48
2022-07-29T00:55:14.699Z,1.20
2022-07-29T00:57:41.803Z,1.70
2022-07-29T01:00:10.522Z,1.17
2022-07-29T01:02:37.027Z,1.40
2022-07-29T01:05:04.641Z,1.00
2022-07-29T01:07:31.170Z,1.60
2022-07-29T01:09:57.802Z,1.30
2022-07-29T01:12:27.855Z,1.40
2022-07-29T01:14:54.606Z,1.23
2022-07-29T01:17:27.325Z,1.35
2022-07-29T01:20:07.286Z,1.50
2022-07-29T01:23:02.890Z,1.77
2022-07-29T01:26:06.563Z,1.98
2022-07-29T01:28:57.882Z,1.35
2022-07-29T01:32:02.862Z,1.10
2022-07-29T01:34:55.675Z,1.40
2022-07-29T01:37:28.931Z,1.20
2022-07-29T01:39:57.299Z,1.23
2022-07-29T01:42:29.007Z,1.20
2022-07-29T01:45:03.212Z,1.40
2022-07-29T01:47:35.790Z,1.40
2022-07-29T01:50:02.464Z,1.33
2022-07-29T01:52:33.357Z,1.30
2022-07-29T01:55:00.343Z,1.65
2022-07-29T01:57:28.481Z,1.20
2022-07-29T01:59:54.969Z,1.35
2022-07-29T02:02:21.464Z,1.60
2022-07-29T02:04:49.513Z,1.30
2022-07-29T02:07:18.314Z,1.40
2022-07-29T02:09:44.800Z,0.90
2022-07-29T02:12:11.291Z,1.15
2022-07-29T02:14:49.023Z,1.52
2022-07-29T02:17:16.424Z,1.30
2022-07-29T02:19:42.933Z,1.20
2022-07-29T02:22:09.745Z,1.23
2022-07-29T02:24:37.054Z,1.10
2022-07-29T02:27:03.595Z,1.60
2022-07-29T02:29:30.134Z,1.20
2022-07-29T02:31:56.670Z,1.35
2022-07-29T02:34:23.189Z,1.73
2022-07-29T02:36:49.730Z,1.42
2022-07-29T02:39:16.305Z,1.08
2022-07-29T02:41:48.853Z,1.33
2022-07-29T02:44:17.249Z,1.20
2022-07-29T02:47:18.470Z,1.20
2022-07-29T02:50:09.450Z,1.58
2022-07-29T02:52:41.996Z,1.40
2022-07-29T02:55:08.347Z,1.30
2022-07-29T02:57:54.664Z,1.25
2022-07-29T03:00:21.741Z,1.48
2022-07-29T03:02:51.535Z,1.40
2022-07-29T03:05:19.465Z,1.30
2022-07-29T03:07:53.872Z,1.30
2022-07-29T03:10:20.543Z,1.60
2022-07-29T03:12:47.040Z,1.17
2022-07-29T03:15:13.541Z,1.48
2022-07-29T03:17:40.080Z,1.42
2022-07-29T03:20:09.096Z,1.30
2022-07-29T03:22:44.306Z,1.23
2022-07-29T03:25:11.949Z,1.60
2022-07-29T03:27:38.457Z,1.20
2022-07-29T03:30:08.892Z,1.50
2022-07-29T03:32:35.789Z,1.38
2022-07-29T03:35:02.338Z,1.50
2022-07-29T03:37:28.891Z,1.35
2022-07-29T03:39:56.216Z,1.42
2022-07-29T03:42:24.424Z,1.30
2022-07-29T03:44:50.906Z,1.70
2022-07-29T03:47:18.665Z,1.60
2022-07-29T03:49:48.075Z,1.30
2022-07-29T03:52:14.670Z,1.40
2022-07-29T03:54:41.147Z,1.35
2022-07-29T03:57:07.689Z,1.50
2022-07-29T03:59:34.935Z,1.33
2022-07-29T04:02:03.131Z,1.33
2022-07-29T04:04:29.711Z,1.20
2022-07-29T04:06:56.215Z,1.35
2022-07-29T04:09:22.782Z,1.20
2022-07-29T04:12:01.795Z,1.33
2022-07-29T04:14:32.319Z,1.45
2022-07-29T04:16:58.812Z,1.30
2022-07-29T04:19:25.306Z,1.70
2022-07-29T04:21:52.278Z,1.33
2022-07-29T04:24:19.190Z,1.60
2022-07-29T04:26:49.093Z,1.40
2022-07-29T04:29:15.616Z,1.45
2022-07-29T04:31:42.630Z,1.20
2022-07-29T04:34:10.003Z,1.13
2022-07-29T04:36:36.518Z,1.65
2022-07-29T04:39:03.521Z,1.35
2022-07-29T04:41:32.794Z,1.30
2022-07-29T04:44:01.960Z,1.20
2022-07-29T04:46:28.722Z,1.30
2022-07-29T04:48:55.330Z,1.23
2022-07-29T04:51:21.900Z,1.55
2022-07-29T04:53:48.783Z,1.45
2022-07-29T04:56:15.296Z,1.58
2022-07-29T04:58:41.817Z,1.33
2022-07-29T05:01:08.393Z,1.60
2022-07-29T05:03:34.908Z,1.17
2022-07-29T05:06:01.416Z,1.25
2022-07-29T05:08:27.909Z,1.60
2022-07-29T05:10:54.426Z,1.27
2022-07-29T05:13:20.910Z,1.45
2022-07-29T05:15:47.474Z,1.30
2022-07-29T05:18:14.026Z,1.30
2022-07-29T05:20:40.571Z,1.30
2022-07-29T05:23:07.084Z,1.30
2022-07-29T05:25:43.240Z,1.40
2022-07-29T05:28:11.279Z,1.33
2022-07-29T05:30:37.927Z,1.50
2022-07-29T05:33:04.475Z,1.30
2022-07-29T05:35:31.016Z,1.40
2022-07-29T05:37:57.498Z,1.30
2022-07-29T05:40:23.977Z,1.40
2022-07-29T05:42:50.471Z,1.38
2022-07-29T05:45:16.961Z,1.70
2022-07-29T05:47:43.483Z,1.60
2022-07-29T05:50:10.091Z,1.40
2022-07-29T05:52:36.588Z,1.20
2022-07-29T05:55:05.239Z,1.45
2022-07-29T05:57:31.957Z,1.20
2022-07-29T05:59:58.448Z,1.52
2022-07-29T06:02:25.416Z,1.35
2022-07-29T06:04:51.982Z,1.40
2022-07-29T06:07:18.888Z,1.25
2022-07-29T06:09:45.376Z,1.50
2022-07-29T06:12:11.883Z,1.35
2022-07-29T06:14:39.152Z,1.27
2022-07-29T06:17:06.582Z,1.10
2022-07-29T06:19:35.257Z,1.40
2022-07-29T06:22:01.768Z,1.50
2022-07-29T06:24:28.280Z,1.35
2022-07-29T06:26:54.844Z,1.30
2022-07-29T06:29:21.328Z,1.60
2022-07-29T06:31:47.891Z,1.25
2022-07-29T06:34:14.758Z,1.10
2022-07-29T06:36:41.844Z,1.50
2022-07-29T06:39:08.530Z,1.42
2022-07-29T06:41:35.060Z,1.10
2022-07-29T06:44:01.554Z,1.20
2022-07-29T06:46:28.646Z,1.40
2022-07-29T06:48:55.510Z,1.20
2022-07-29T06:51:23.171Z,1.33
2022-07-29T06:54:00.581Z,1.25
2022-07-29T06:56:39.016Z,1.33
2022-07-29T06:59:07.107Z,1.23
2022-07-29T07:01:33.697Z,1.10
2022-07-29T07:04:00.239Z,1.13
2022-07-29T07:06:26.801Z,1.15
2022-07-29T07:08:53.307Z,1.67
2022-07-29T07:11:19.844Z,1.30
2022-07-29T07:13:46.328Z,1.45
2022-07-29T07:16:12.866Z,1.50
2022-07-29T07:18:39.405Z,1.30
2022-07-29T07:21:06.650Z,1.13
2022-07-29T07:23:33.147Z,1.30
2022-07-29T07:25:59.651Z,1.30
2022-07-29T07:28:26.135Z,1.50
2022-07-29T07:30:53.164Z,1.45
2022-07-29T07:33:19.756Z,1.50
2022-07-29T07:35:46.439Z,1.20
2022-07-29T07:38:12.939Z,1.48
2022-07-29T07:40:39.472Z,1.23
2022-07-29T07:43:05.954Z,1.52
2022-07-29T07:45:33.953Z,1.10
2022-07-29T07:48:00.746Z,1.65
2022-07-29T07:50:27.282Z,1.40
2022-07-29T07:52:55.904Z,1.35
2022-07-29T07:55:22.474Z,1.42
2022-07-29T07:57:48.965Z,1.20
2022-07-29T08:00:15.807Z,1.30
2022-07-29T08:02:43.841Z,1.30
2022-07-29T08:05:12.690Z,1.40
2022-07-29T08:07:39.674Z,1.35
2022-07-29T08:10:06.390Z,1.45
2022-07-29T08:12:32.903Z,1.55
2022-07-29T08:14:59.498Z,1.48
2022-07-29T08:17:26.245Z,1.55
2022-07-29T08:19:52.770Z,1.45
2022-07-29T08:22:19.277Z,1.15
2022-07-29T08:24:53.223Z,1.77
2022-07-29T08:27:42.541Z,1.40
2022-07-29T08:30:08.008Z,1.25
2022-07-29T08:32:52.769Z,1.60
2022-07-29T08:35:20.856Z,1.95
2022-07-29T08:37:47.646Z,1.38
2022-07-29T08:40:15.098Z,1.40
2022-07-29T08:42:41.907Z,1.27
2022-07-29T08:45:08.885Z,1.50
2022-07-29T08:47:39.491Z,1.23
2022-07-29T08:50:09.809Z,1.33
2022-07-29T08:52:40.709Z,1.63
2022-07-29T08:55:09.951Z,1.33
2022-07-29T08:57:37.211Z,1.40
2022-07-29T09:00:08.112Z,1.20
2022-07-29T09:02:41.168Z,1.50
2022-07-29T09:05:08.031Z,1.33
2022-07-29T09:07:35.239Z,1.20
2022-07-29T09:10:02.377Z,1.48
2022-07-29T09:12:32.724Z,1.20
2022-07-29T09:15:01.326Z,1.70
2022-07-29T09:17:54.038Z,1.60
2022-07-29T09:20:23.174Z,1.95
2022-07-29T09:22:50.507Z,1.58
2022-07-29T09:25:36.124Z,1.40
2022-07-29T09:28:17.362Z,1.20
2022-07-29T09:30:56.478Z,1.50
2022-07-29T09:33:23.562Z,1.73
2022-07-29T09:36:06.308Z,1.23
2022-07-29T09:38:37.298Z,1.38
2022-07-29T09:41:05.946Z,1.23
2022-07-29T09:43:33.053Z,1.20
2022-07-29T09:46:12.993Z,1.80
2022-07-29T09:48:39.618Z,1.58
2022-07-29T09:51:07.411Z,1.40
2022-07-29T09:53:35.304Z,1.20
2022-07-29T09:56:01.863Z,1.70
2022-07-29T09:58:28.445Z,1.52
2022-07-29T10:00:55.906Z,1.85
2022-07-29T10:03:22.638Z,1.42
2022-07-29T10:06:09.265Z,1.60
2022-07-29T10:08:35.963Z,1.70
2022-07-29T10:11:13.272Z,1.70
2022-07-29T10:13:40.324Z,1.73
2022-07-29T10:16:06.994Z,1.60
2022-07-29T10:18:33.629Z,1.60
2022-07-29T10:21:02.130Z,1.48
2022-07-29T10:23:29.351Z,1.50
2022-07-29T10:26:13.172Z,1.70
2022-07-29T10:28:39.650Z,1.70
2022-07-29T10:31:07.419Z,1.80
2022-07-29T10:33:39.985Z,2.15
2022-07-29T10:36:06.437Z,1.90
2022-07-29T10:39:11.410Z,2.13
2022-07-29T10:41:56.195Z,1.65
2022-07-29T10:44:23.967Z,1.77
2022-07-29T10:46:51.464Z,1.95
2022-07-29T10:49:25.105Z,1.75
2022-07-29T10:51:59.225Z,1.70
2022-07-29T10:54:43.707Z,2.60
2022-07-29T10:57:53.593Z,1.42
2022-07-29T11:00:17.004Z,1.48
2022-07-29T11:02:45.345Z,1.60
2022-07-29T11:05:13.287Z,1.63
2022-07-29T11:07:45.911Z,2.00
2022-07-29T11:10:12.951Z,2.05
2022-07-29T11:12:43.651Z,2.08
2022-07-29T11:15:13.573Z,1.60
2022-07-29T11:21:00.654Z,2.10
2022-07-29T11:23:33.344Z,1.83
2022-07-29T11:26:26.151Z,1.50
2022-07-29T11:28:56.922Z,2.17
2022-07-29T11:31:33.975Z,2.10
2022-07-29T11:34:22.954Z,1.90
2022-07-29T11:37:13.601Z,1.70
2022-07-29T11:39:41.022Z,1.90
2022-07-29T11:42:32.079Z,2.47
2022-07-29T11:45:44.360Z,1.65
2022-07-29T11:47:55.108Z,1.55
2022-07-29T11:50:29.978Z,1.55
2022-07-29T11:52:56.764Z,1.67
2022-07-29T11:55:23.914Z,1.77
2022-07-29T12:00:48.935Z,2.08
2022-07-29T12:03:35.546Z,2.05
2022-07-29T12:06:03.268Z,1.80
2022-07-29T12:08:29.998Z,1.95
2022-07-29T12:10:56.749Z,1.80
2022-07-29T12:13:37.169Z,1.77
2022-07-29T12:16:04.934Z,1.90
2022-07-29T12:18:31.899Z,1.85
2022-07-29T12:21:04.608Z,2.10
2022-07-29T12:23:35.010Z,1.90
2022-07-29T12:26:04.384Z,1.90
2022-07-29T12:28:30.939Z,1.85
2022-07-29T12:30:57.491Z,1.90
2022-07-29T12:33:31.120Z,2.40
2022-07-29T12:36:17.157Z,2.50
2022-07-29T12:38:44.426Z,2.40
2022-07-29T12:41:10.933Z,1.88
2022-07-29T12:43:37.447Z,2.50
2022-07-29T12:46:14.205Z,1.73
2022-07-29T12:48:41.787Z,2.28
2022-07-29T12:51:09.690Z,2.15
2022-07-29T12:53:39.058Z,2.30
2022-07-29T12:56:20.664Z,2.20
2022-07-29T12:58:52.811Z,1.80
2022-07-29T13:01:21.054Z,1.70
2022-07-29T13:03:59.769Z,2.10
2022-07-29T13:06:37.028Z,2.10
2022-07-29T13:09:14.473Z,2.22
2022-07-29T13:11:46.538Z,2.10
2022-07-29T13:14:35.731Z,2.00
2022-07-29T13:17:11.086Z,2.10
2022-07-29T13:19:41.804Z,2.30
2022-07-29T13:22:09.612Z,2.30
2022-07-29T13:25:08.698Z,2.15
2022-07-29T13:27:37.394Z,2.30
2022-07-29T13:30:05.956Z,2.05
2022-07-29T13:32:32.624Z,2.38
2022-07-29T13:35:00.376Z,2.40
2022-07-29T13:37:27.297Z,2.17
2022-07-29T13:39:55.076Z,2.28
2022-07-29T13:42:21.699Z,2.33
2022-07-29T13:44:49.603Z,2.33
2022-07-29T13:47:17.120Z,2.50
2022-07-29T13:49:43.670Z,2.55
2022-07-29T13:52:10.158Z,2.40
2022-07-29T13:54:42.296Z,2.35
2022-07-29T13:57:09.326Z,2.70
2022-07-29T13:59:35.842Z,2.63
2022-07-29T14:02:02.440Z,2.85
2022-07-29T14:04:29.022Z,2.60
2022-07-29T14:06:55.602Z,2.33
2022-07-29T14:09:22.122Z,1.90
2022-07-29T14:11:50.626Z,2.75
2022-07-29T14:14:17.240Z,2.47
2022-07-29T14:16:49.225Z,2.92
2022-07-29T14:19:18.753Z,2.30
2022-07-29T14:21:45.840Z,2.85
2022-07-29T14:24:18.005Z,2.45
2022-07-29T14:26:47.968Z,2.30
2022-07-29T14:29:14.558Z,2.30
2022-07-29T14:31:41.171Z,2.45
2022-07-29T14:34:07.765Z,2.30
2022-07-29T14:36:34.290Z,2.50
2022-07-29T14:39:00.831Z,2.35
2022-07-29T14:41:29.130Z,2.75
2022-07-29T14:43:55.739Z,2.50
2022-07-29T14:46:22.284Z,2.70
2022-07-29T14:48:48.910Z,2.80
2022-07-29T14:51:15.481Z,2.67
2022-07-29T14:53:42.054Z,2.58
2022-07-29T14:56:34.334Z,2.83
2022-07-29T14:58:55.050Z,2.40
2022-07-29T15:01:21.750Z,2.65
2022-07-29T15:03:48.393Z,2.25
2022-07-29T15:06:14.900Z,2.50
2022-07-29T15:08:41.461Z,2.50
2022-07-29T15:11:07.954Z,2.47
2022-07-29T15:13:34.842Z,2.60
2022-07-29T15:16:01.456Z,2.20
2022-07-29T15:18:27.965Z,2.92
2022-07-29T15:20:54.464Z,2.13
2022-07-29T15:23:21.046Z,2.40
2022-07-29T15:25:47.542Z,2.60
2022-07-29T15:28:14.042Z,2.72
2022-07-29T15:30:43.412Z,2.80
2022-07-29T15:33:10.368Z,2.40
2022-07-29T15:35:39.956Z,2.70
2022-07-29T15:38:06.865Z,2.65
2022-07-29T15:40:33.419Z,2.63
2022-07-29T15:43:06.373Z,2.65
2022-07-29T15:45:40.639Z,3.20
2022-07-29T15:48:08.117Z,2.90
2022-07-29T15:50:34.814Z,2.65
2022-07-29T15:53:01.420Z,2.83
2022-07-29T15:55:27.956Z,2.80
2022-07-29T15:57:58.573Z,2.92
2022-07-29T16:00:27.103Z,2.85
2022-07-29T16:02:53.604Z,2.90
2022-07-29T16:05:20.123Z,2.95
2022-07-29T16:07:46.656Z,3.00
2022-07-29T16:10:13.206Z,3.22
2022-07-29T16:12:39.713Z,2.85
2022-07-29T16:15:09.882Z,2.80
2022-07-29T16:17:37.720Z,3.25
2022-07-29T16:20:05.720Z,3.20
2022-07-29T16:22:32.266Z,2.97
2022-07-29T16:24:58.774Z,2.83
2022-07-29T16:27:37.459Z,2.70
2022-07-29T16:30:06.131Z,3.30
2022-07-29T16:32:32.641Z,2.78
2022-07-29T16:34:59.164Z,2.90
2022-07-29T16:37:25.865Z,3.20
2022-07-29T16:39:55.412Z,3.05
2022-07-29T16:42:44.211Z,3.17
2022-07-29T16:45:09.005Z,3.15
2022-07-29T16:47:36.089Z,3.35
2022-07-29T16:50:02.602Z,3.17
2022-07-29T16:52:29.144Z,3.00
2022-07-29T16:54:55.669Z,3.03
2022-07-29T16:57:22.233Z,3.50
2022-07-29T16:59:50.948Z,3.03
2022-07-29T17:02:17.627Z,3.15
2022-07-29T17:04:44.191Z,3.70
2022-07-29T17:07:10.698Z,3.10
2022-07-29T17:09:37.316Z,3.40
2022-07-29T17:12:04.069Z,3.50
2022-07-29T17:14:31.105Z,3.40
2022-07-29T17:17:00.460Z,3.47
2022-07-29T17:19:28.979Z,3.33
2022-07-29T17:22:02.346Z,3.30
2022-07-29T17:24:33.544Z,3.65
2022-07-29T17:27:00.367Z,3.92
2022-07-29T17:29:27.145Z,3.13
2022-07-29T17:31:53.678Z,3.30
2022-07-29T17:34:20.227Z,3.00
2022-07-29T17:36:46.853Z,3.42
2022-07-29T17:39:13.411Z,3.15
2022-07-29T17:41:44.790Z,3.30
2022-07-29T17:44:11.282Z,3.35
2022-07-29T17:46:37.990Z,3.20
2022-07-29T17:49:04.745Z,3.10
2022-07-29T17:51:31.294Z,3.22
2022-07-29T17:53:58.289Z,3.25
2022-07-29T17:56:24.981Z,3.13
2022-07-29T17:58:51.574Z,3.15
2022-07-29T18:01:18.229Z,3.00
2022-07-29T18:03:44.762Z,2.90
2022-07-29T18:06:11.271Z,3.20
2022-07-29T18:08:38.900Z,3.47
2022-07-29T18:11:06.350Z,3.65
2022-07-29T18:13:32.937Z,3.50
2022-07-29T18:16:00.623Z,3.10
2022-07-29T18:18:27.432Z,3.25
2022-07-29T18:20:54.003Z,3.50
2022-07-29T18:23:20.515Z,3.05
2022-07-29T18:25:47.058Z,3.40
2022-07-29T18:28:13.590Z,3.58
2022-07-29T18:30:40.105Z,3.10
2022-07-29T18:33:23.942Z,3.75
2022-07-29T18:35:51.616Z,3.33
2022-07-29T18:38:18.157Z,3.67
2022-07-29T18:40:45.788Z,3.15
2022-07-29T18:43:12.711Z,3.22
2022-07-29T18:45:39.494Z,3.20
2022-07-29T18:48:08.360Z,3.10
2022-07-29T18:50:39.573Z,3.15
2022-07-29T18:53:06.090Z,3.72
2022-07-29T18:55:32.896Z,3.17
2022-07-29T18:57:59.580Z,3.17
2022-07-29T19:00:26.207Z,3.33
2022-07-29T19:02:53.063Z,2.70
2022-07-29T19:05:19.796Z,2.97
2022-07-29T19:07:46.305Z,3.35
2022-07-29T19:10:13.545Z,3.25
2022-07-29T19:12:40.090Z,3.35
2022-07-29T19:15:08.129Z,3.22
2022-07-29T19:17:34.555Z,2.83
2022-07-29T19:20:01.292Z,3.17
2022-07-29T19:22:27.821Z,3.00
2022-07-29T19:24:54.345Z,2.88
2022-07-29T19:27:20.844Z,2.90
2022-07-29T19:29:47.823Z,3.20
2022-07-29T19:32:24.412Z,2.92
2022-07-29T19:35:10.198Z,3.30
2022-07-29T19:37:37.397Z,3.35
2022-07-29T19:40:04.961Z,2.90
2022-07-29T19:42:31.444Z,2.97
2022-07-29T19:44:58.102Z,3.03
2022-07-29T19:47:24.810Z,3.05
2022-07-29T19:49:51.568Z,3.05
2022-07-29T19:52:18.095Z,3.30
2022-07-29T19:54:44.765Z,3.50
2022-07-29T19:57:11.437Z,3.00
2022-07-29T19:59:37.963Z,3.28
2022-07-29T20:02:04.900Z,3.25
2022-07-29T20:04:31.950Z,3.17
2022-07-29T20:07:01.627Z,3.42
2022-07-29T20:09:28.651Z,3.03
2022-07-29T20:11:56.277Z,3.00
2022-07-29T20:14:23.591Z,3.13
2022-07-29T20:16:54.406Z,3.10
2022-07-29T20:19:21.026Z,3.35
2022-07-29T20:21:47.672Z,3.17
2022-07-29T20:24:14.465Z,3.50
2022-07-29T20:26:41.128Z,3.35
2022-07-29T20:29:07.717Z,3.30
2022-07-29T20:31:34.251Z,3.00
2022-07-29T20:34:00.884Z,3.78
2022-07-29T20:36:28.113Z,3.67
2022-07-29T20:38:55.130Z,3.30
2022-07-29T20:41:21.741Z,3.38
2022-07-29T20:43:51.358Z,3.35
2022-07-29T20:46:18.296Z,3.35
2022-07-29T20:48:45.357Z,3.03
2022-07-29T20:51:11.990Z,3.40
2022-07-29T20:53:39.889Z,3.67
2022-07-29T20:56:06.700Z,3.25
2022-07-29T20:58:34.308Z,2.90
2022-07-29T21:01:01.054Z,3.30
2022-07-29T21:03:27.695Z,3.40
2022-07-29T21:05:54.237Z,3.90
2022-07-29T21:08:21.155Z,3.88
2022-07-29T21:10:47.825Z,3.70
2022-07-29T21:13:14.506Z,4.00
2022-07-29T21:15:44.603Z,3.80
2022-07-29T21:21:02.482Z,3.50
2022-07-29T21:23:30.000Z,3.35
2022-07-29T21:25:56.616Z,3.33
2022-07-29T21:28:41.407Z,3.13
2022-07-29T21:31:12.534Z,3.47
2022-07-29T21:33:43.696Z,3.30
2022-07-29T21:36:45.414Z,2.92
2022-07-29T21:38:57.866Z,3.38
2022-07-29T21:41:24.380Z,3.20
2022-07-29T21:43:50.884Z,3.83
2022-07-29T21:46:19.075Z,3.20
2022-07-29T21:48:45.657Z,3.50
2022-07-29T21:51:12.192Z,3.28
2022-07-29T21:53:38.857Z,3.80
2022-07-29T21:56:06.564Z,3.97
2022-07-29T21:58:36.822Z,3.80
2022-07-29T22:01:03.384Z,3.97
2022-07-29T22:03:29.909Z,4.10
2022-07-29T22:05:56.614Z,3.97
2022-07-29T22:08:23.130Z,4.25
2022-07-29T22:10:49.686Z,4.55
2022-07-29T22:13:16.607Z,4.50
2022-07-29T22:15:46.909Z,4.50
2022-07-29T22:18:13.715Z,4.35
2022-07-29T22:20:49.563Z,4.18
2022-07-29T22:23:16.062Z,4.60
2022-07-29T22:25:42.582Z,4.28
2022-07-29T22:28:09.096Z,4.30
2022-07-29T22:30:35.667Z,5.10
2022-07-29T22:33:02.186Z,5.00
2022-07-29T22:35:28.795Z,4.65
2022-07-29T22:37:55.290Z,5.15
2022-07-29T22:40:21.782Z,4.70
2022-07-29T22:42:48.387Z,4.75
2022-07-29T22:45:14.906Z,4.72
2022-07-29T22:47:48.256Z,5.35
2022-07-29T22:50:15.543Z,4.88
2022-07-29T22:52:42.059Z,5.10
2022-07-29T22:55:08.769Z,4.82
2022-07-29T22:57:35.324Z,4.88
2022-07-29T23:00:02.412Z,5.57
2022-07-29T23:02:29.136Z,5.10
2022-07-29T23:04:55.688Z,4.93
2022-07-29T23:07:22.258Z,4.60
2022-07-29T23:09:48.803Z,5.00
2022-07-29T23:12:15.322Z,5.78
2022-07-29T23:14:41.945Z,5.75
2022-07-29T23:17:08.531Z,5.57
2022-07-29T23:19:35.117Z,6.03
2022-07-29T23:22:01.693Z,6.57
2022-07-29T23:24:28.189Z,6.20
2022-07-29T23:26:55.017Z,6.45
2022-07-29T23:29:21.570Z,6.85
2022-07-29T23:31:48.510Z,6.45
2022-07-29T23:34:15.086Z,6.72
2022-07-29T23:36:42.304Z,6.53
2022-07-29T23:39:13.067Z,7.55
2022-07-29T23:41:40.156Z,7.55
2022-07-29T23:44:06.652Z,7.53
2022-07-29T23:46:33.518Z,7.60
2022-07-29T23:49:00.193Z,6.97
2022-07-29T23:51:28.968Z,6.90
2022-07-29T23:53:55.714Z,6.97
2022-07-29T23:56:22.214Z,6.93
2022-07-29T23:58:48.988Z,6.63
